createdAt,value
2023-04-20T00:00:40.534Z,1015.74
2023-04-20T00:01:40.546Z,1015.74
2023-04-20T00:02:40.841Z,1015.71
2023-04-20T00:03:40.597Z,1015.73
2023-04-20T00:04:40.557Z,1015.69
2023-04-20T00:05:40.498Z,1015.68
2023-04-20T00:06:40.491Z,1015.71
2023-04-20T00:07:40.509Z,1015.71
2023-04-20T00:08:40.496Z,1015.67
2023-04-20T00:09:40.504Z,1015.70
2023-04-20T00:10:40.513Z,1015.70
2023-04-20T00:11:40.510Z,1015.69
2023-04-20T00:12:40.472Z,1015.71
2023-04-20T00:13:40.486Z,1015.70
2023-04-20T00:14:40.495Z,1015.65
2023-04-20T00:15:40.470Z,1015.64
2023-04-20T00:16:40.533Z,1015.58
2023-04-20T00:17:40.566Z,1015.57
2023-04-20T00:18:40.457Z,1015.56
2023-04-20T00:19:40.476Z,1015.61
2023-04-20T00:20:40.475Z,1015.58
2023-04-20T00:21:40.454Z,1015.52
2023-04-20T00:22:40.473Z,1015.55
2023-04-20T00:23:40.443Z,1015.52
2023-04-20T00:24:40.438Z,1015.50
2023-04-20T00:25:40.433Z,1015.46
2023-04-20T00:26:40.458Z,1015.47
2023-04-20T00:27:40.429Z,1015.44
2023-04-20T00:28:40.422Z,1015.36
2023-04-20T00:29:40.400Z,1015.37
2023-04-20T00:30:40.431Z,1015.37
2023-04-20T00:31:40.386Z,1015.27
2023-04-20T00:32:40.417Z,1015.22
2023-04-20T00:33:40.376Z,1015.24
2023-04-20T00:34:40.379Z,1015.23
2023-04-20T00:35:40.383Z,1015.23
2023-04-20T00:36:40.398Z,1015.20
2023-04-20T00:37:40.372Z,1015.20
2023-04-20T00:38:40.361Z,1015.20
2023-04-20T00:39:40.398Z,1015.17
2023-04-20T00:40:40.362Z,1015.17
2023-04-20T00:41:40.359Z,1015.15
2023-04-20T00:42:40.396Z,1015.12
2023-04-20T00:43:40.330Z,1015.07
2023-04-20T00:44:40.332Z,1015.07
2023-04-20T00:45:40.337Z,1015.10
2023-04-20T00:46:40.450Z,1015.11
2023-04-20T00:47:40.355Z,1015.10
2023-04-20T00:48:40.329Z,1015.04
2023-04-20T00:49:40.321Z,1015.06
2023-04-20T00:50:40.345Z,1015.03
2023-04-20T00:51:40.319Z,1015.00
2023-04-20T00:52:40.340Z,1015.03
2023-04-20T00:53:40.290Z,1015.03
2023-04-20T00:54:40.316Z,1015.04
2023-04-20T00:55:40.285Z,1015.01
2023-04-20T00:56:40.289Z,1014.99
2023-04-20T00:57:40.305Z,1014.97
2023-04-20T00:58:40.302Z,1014.97
2023-04-20T00:59:40.269Z,1014.95
2023-04-20T01:00:40.287Z,1014.96
2023-04-20T01:01:40.311Z,1014.89
2023-04-20T01:02:40.440Z,1014.90
2023-04-20T01:03:40.569Z,1014.87
2023-04-20T01:04:40.359Z,1014.84
2023-04-20T01:05:40.253Z,1014.84
2023-04-20T01:06:40.258Z,1014.81
2023-04-20T01:07:40.270Z,1014.81
2023-04-20T01:08:40.247Z,1014.76
2023-04-20T01:09:40.244Z,1014.77
2023-04-20T01:10:40.236Z,1014.76
2023-04-20T01:11:40.246Z,1014.77
2023-04-20T01:12:40.215Z,1014.80
2023-04-20T01:13:40.225Z,1014.76
2023-04-20T01:14:40.255Z,1014.75
2023-04-20T01:15:40.224Z,1014.73
2023-04-20T01:16:40.197Z,1014.72
2023-04-20T01:17:40.349Z,1014.72
2023-04-20T01:18:40.188Z,1014.73
2023-04-20T01:19:40.190Z,1014.72
2023-04-20T01:20:40.187Z,1014.73
2023-04-20T01:21:40.176Z,1014.72
2023-04-20T01:22:40.176Z,1014.70
2023-04-20T01:23:40.186Z,1014.70
2023-04-20T01:24:40.169Z,1014.68
2023-04-20T01:25:40.153Z,1014.66
2023-04-20T01:26:40.151Z,1014.69
2023-04-20T01:27:40.154Z,1014.67
2023-04-20T01:28:40.148Z,1014.67
2023-04-20T01:29:40.141Z,1014.66
2023-04-20T01:30:40.172Z,1014.65
2023-04-20T01:31:40.176Z,1014.66
2023-04-20T01:33:40.123Z,1014.60
2023-04-20T01:34:40.140Z,1014.59
2023-04-20T01:35:40.120Z,1014.58
2023-04-20T01:36:40.123Z,1014.56
2023-04-20T01:37:40.122Z,1014.57
2023-04-20T01:38:40.137Z,1014.58
2023-04-20T01:39:40.189Z,1014.54
2023-04-20T01:40:40.119Z,1014.51
2023-04-20T01:41:40.101Z,1014.51
2023-04-20T01:42:40.086Z,1014.48
2023-04-20T01:43:40.104Z,1014.48
2023-04-20T01:44:40.100Z,1014.45
2023-04-20T01:45:40.082Z,1014.45
2023-04-20T01:46:40.180Z,1014.50
2023-04-20T01:47:40.110Z,1014.49
2023-04-20T01:48:40.083Z,1014.54
2023-04-20T01:49:40.064Z,1014.52
2023-04-20T01:50:40.077Z,1014.53
2023-04-20T01:51:40.092Z,1014.50
2023-04-20T01:52:40.051Z,1014.50
2023-04-20T01:53:40.048Z,1014.45
2023-04-20T01:54:40.032Z,1014.48
2023-04-20T01:55:40.027Z,1014.48
2023-04-20T01:56:40.060Z,1014.45
2023-04-20T01:57:40.028Z,1014.48
2023-04-20T01:58:40.041Z,1014.46
2023-04-20T01:59:40.042Z,1014.49
2023-04-20T02:00:40.102Z,1014.48
2023-04-20T02:01:40.019Z,1014.49
2023-04-20T02:02:40.164Z,1014.48
2023-04-20T02:03:40.120Z,1014.46
2023-04-20T02:04:39.994Z,1014.46
2023-04-20T02:05:39.981Z,1014.45
2023-04-20T02:06:39.996Z,1014.41
2023-04-20T02:07:39.999Z,1014.41
2023-04-20T02:08:39.989Z,1014.37
2023-04-20T02:09:39.975Z,1014.38
2023-04-20T02:10:39.976Z,1014.30
2023-04-20T02:11:39.977Z,1014.27
2023-04-20T02:12:39.957Z,1014.28
2023-04-20T02:13:39.980Z,1014.26
2023-04-20T02:14:39.957Z,1014.25
2023-04-20T02:15:39.961Z,1014.19
2023-04-20T02:16:39.984Z,1014.19
2023-04-20T02:17:39.948Z,1014.23
2023-04-20T02:18:40.000Z,1014.17
2023-04-20T02:19:39.918Z,1014.19
2023-04-20T02:20:39.971Z,1014.11
2023-04-20T02:21:39.917Z,1014.10
2023-04-20T02:22:39.922Z,1014.06
2023-04-20T02:23:39.917Z,1014.05
2023-04-20T02:24:39.914Z,1014.03
2023-04-20T02:25:39.890Z,1013.95
2023-04-20T02:26:39.890Z,1013.94
2023-04-20T02:27:39.883Z,1013.91
2023-04-20T02:28:39.882Z,1013.88
2023-04-20T02:29:39.878Z,1013.86
2023-04-20T02:30:39.882Z,1013.92
2023-04-20T02:31:39.961Z,1013.89
2023-04-20T02:32:39.921Z,1013.87
2023-04-20T02:33:39.891Z,1013.88
2023-04-20T02:34:40.065Z,1013.89
2023-04-20T02:35:39.854Z,1013.87
2023-04-20T02:36:39.848Z,1013.86
2023-04-20T02:37:39.854Z,1013.87
2023-04-20T02:38:39.844Z,1013.84
2023-04-20T02:39:39.839Z,1013.83
2023-04-20T02:40:39.825Z,1013.81
2023-04-20T02:41:39.836Z,1013.77
2023-04-20T02:42:39.834Z,1013.73
2023-04-20T02:43:39.813Z,1013.76
2023-04-20T02:44:39.832Z,1013.75
2023-04-20T02:45:39.852Z,1013.74
2023-04-20T02:46:39.883Z,1013.75
2023-04-20T02:47:39.855Z,1013.72
2023-04-20T02:48:39.809Z,1013.72
2023-04-20T02:49:39.785Z,1013.67
2023-04-20T02:50:39.808Z,1013.65
2023-04-20T02:51:39.801Z,1013.64
2023-04-20T02:52:39.770Z,1013.65
2023-04-20T02:53:39.771Z,1013.63
2023-04-20T02:54:39.779Z,1013.64
2023-04-20T02:55:39.809Z,1013.61
2023-04-20T02:56:39.771Z,1013.61
2023-04-20T02:57:39.760Z,1013.63
2023-04-20T02:58:39.753Z,1013.61
2023-04-20T02:59:39.762Z,1013.60
2023-04-20T03:00:39.754Z,1013.61
2023-04-20T03:01:39.760Z,1013.59
2023-04-20T03:02:39.951Z,1013.60
2023-04-20T03:03:39.890Z,1013.59
2023-04-20T03:04:39.780Z,1013.59
2023-04-20T03:05:39.724Z,1013.58
2023-04-20T03:06:39.814Z,1013.59
2023-04-20T03:07:39.727Z,1013.56
2023-04-20T03:08:39.730Z,1013.54
2023-04-20T03:09:39.717Z,1013.52
2023-04-20T03:10:39.724Z,1013.54
2023-04-20T03:11:39.716Z,1013.55
2023-04-20T03:12:39.708Z,1013.51
2023-04-20T03:13:39.682Z,1013.50
2023-04-20T03:14:39.692Z,1013.53
2023-04-20T03:15:39.697Z,1013.54
2023-04-20T03:16:39.773Z,1013.52
2023-04-20T03:17:39.796Z,1013.54
2023-04-20T03:18:39.720Z,1013.52
2023-04-20T03:19:39.701Z,1013.49
2023-04-20T03:20:39.672Z,1013.52
2023-04-20T03:21:39.669Z,1013.53
2023-04-20T03:22:39.677Z,1013.52
2023-04-20T03:23:39.647Z,1013.52
2023-04-20T03:24:39.651Z,1013.49
2023-04-20T03:25:39.648Z,1013.50
2023-04-20T03:26:39.632Z,1013.49
2023-04-20T03:27:39.630Z,1013.51
2023-04-20T03:28:39.628Z,1013.50
2023-04-20T03:29:39.629Z,1013.50
2023-04-20T03:30:39.615Z,1013.50
2023-04-20T03:31:39.635Z,1013.46
2023-04-20T03:32:39.638Z,1013.46
2023-04-20T03:33:39.592Z,1013.42
2023-04-20T03:34:39.597Z,1013.41
2023-04-20T03:35:39.613Z,1013.44
2023-04-20T03:36:39.617Z,1013.42
2023-04-20T03:37:39.601Z,1013.45
2023-04-20T03:38:39.621Z,1013.41
2023-04-20T03:39:39.578Z,1013.41
2023-04-20T03:40:39.588Z,1013.40
2023-04-20T03:41:39.557Z,1013.39
2023-04-20T03:42:39.581Z,1013.40
2023-04-20T03:43:39.548Z,1013.35
2023-04-20T03:44:39.556Z,1013.39
2023-04-20T03:45:39.584Z,1013.39
2023-04-20T03:46:39.555Z,1013.37
2023-04-20T03:47:39.622Z,1013.37
2023-04-20T03:48:39.563Z,1013.34
2023-04-20T03:49:39.531Z,1013.35
2023-04-20T03:50:39.540Z,1013.31
2023-04-20T03:51:39.507Z,1013.31
2023-04-20T03:52:39.506Z,1013.28
2023-04-20T03:53:39.714Z,1013.30
2023-04-20T03:54:39.676Z,1013.32
2023-04-20T03:55:39.510Z,1013.30
2023-04-20T03:56:39.500Z,1013.31
2023-04-20T03:57:39.507Z,1013.28
2023-04-20T03:58:39.478Z,1013.27
2023-04-20T03:59:39.475Z,1013.25
2023-04-20T04:00:39.472Z,1013.24
2023-04-20T04:01:39.490Z,1013.24
2023-04-20T04:02:39.576Z,1013.23
2023-04-20T04:03:39.573Z,1013.19
2023-04-20T04:04:39.573Z,1013.23
2023-04-20T04:05:39.471Z,1013.26
2023-04-20T04:06:39.441Z,1013.25
2023-04-20T04:07:39.472Z,1013.24
2023-04-20T04:08:39.446Z,1013.27
2023-04-20T04:09:39.447Z,1013.26
2023-04-20T04:10:39.464Z,1013.25
2023-04-20T04:11:39.432Z,1013.25
2023-04-20T04:12:39.419Z,1013.26
2023-04-20T04:13:39.437Z,1013.26
2023-04-20T04:14:39.433Z,1013.24
2023-04-20T04:15:39.420Z,1013.24
2023-04-20T04:16:39.433Z,1013.23
2023-04-20T04:17:39.424Z,1013.22
2023-04-20T04:18:39.385Z,1013.21
2023-04-20T04:19:39.418Z,1013.19
2023-04-20T04:20:39.436Z,1013.15
2023-04-20T04:21:39.399Z,1013.20
2023-04-20T04:22:39.389Z,1013.17
2023-04-20T04:23:39.377Z,1013.18
2023-04-20T04:24:39.370Z,1013.17
2023-04-20T04:25:39.382Z,1013.19
2023-04-20T04:26:39.385Z,1013.17
2023-04-20T04:27:39.385Z,1013.17
2023-04-20T04:28:39.362Z,1013.15
2023-04-20T04:29:39.352Z,1013.15
2023-04-20T04:30:39.351Z,1013.10
2023-04-20T04:31:39.425Z,1013.12
2023-04-20T04:32:39.437Z,1013.15
2023-04-20T04:33:39.323Z,1013.13
2023-04-20T04:34:39.352Z,1013.13
2023-04-20T04:35:39.325Z,1013.16
2023-04-20T04:36:39.324Z,1013.13
2023-04-20T04:37:39.323Z,1013.13
2023-04-20T04:38:39.320Z,1013.10
2023-04-20T04:39:39.313Z,1013.13
2023-04-20T04:40:39.306Z,1013.14
2023-04-20T04:41:39.302Z,1013.10
2023-04-20T04:42:39.297Z,1013.10
2023-04-20T04:43:39.306Z,1013.12
2023-04-20T04:44:39.286Z,1013.11
2023-04-20T04:45:39.274Z,1013.09
2023-04-20T04:46:39.344Z,1013.12
2023-04-20T04:47:39.299Z,1013.13
2023-04-20T04:48:39.276Z,1013.09
2023-04-20T04:49:39.259Z,1013.14
2023-04-20T04:50:39.268Z,1013.06
2023-04-20T04:51:39.254Z,1013.08
2023-04-20T04:52:39.258Z,1013.12
2023-04-20T04:53:39.244Z,1013.05
2023-04-20T04:54:39.270Z,1013.11
2023-04-20T04:55:39.232Z,1013.11
2023-04-20T04:56:39.226Z,1013.09
2023-04-20T04:57:39.227Z,1013.07
2023-04-20T04:58:39.233Z,1013.09
2023-04-20T04:59:39.243Z,1013.07
2023-04-20T05:00:39.207Z,1013.08
2023-04-20T05:01:39.259Z,1013.07
2023-04-20T05:02:39.709Z,1013.05
2023-04-20T05:03:39.308Z,1013.10
2023-04-20T05:04:39.370Z,1013.06
2023-04-20T05:05:39.195Z,1013.07
2023-04-20T05:06:39.197Z,1013.07
2023-04-20T05:07:39.202Z,1013.11
2023-04-20T05:08:39.179Z,1013.07
2023-04-20T05:09:39.173Z,1013.05
2023-04-20T05:10:39.168Z,1013.01
2023-04-20T05:11:39.171Z,1013.01
2023-04-20T05:12:39.188Z,1013.06
2023-04-20T05:13:39.194Z,1013.07
2023-04-20T05:14:39.204Z,1013.07
2023-04-20T05:15:39.163Z,1013.03
2023-04-20T05:16:39.231Z,1013.05
2023-04-20T05:17:39.225Z,1013.12
2023-04-20T05:18:39.137Z,1013.07
2023-04-20T05:19:39.148Z,1013.01
2023-04-20T05:20:39.129Z,1012.97
2023-04-20T05:21:39.146Z,1012.98
2023-04-20T05:22:39.138Z,1012.97
2023-04-20T05:23:39.123Z,1012.97
2023-04-20T05:24:39.124Z,1012.99
2023-04-20T05:25:39.148Z,1012.98
2023-04-20T05:26:39.126Z,1012.96
2023-04-20T05:27:39.143Z,1012.97
2023-04-20T05:28:39.100Z,1012.98
2023-04-20T05:29:39.146Z,1012.98
2023-04-20T05:30:39.131Z,1013.02
2023-04-20T05:31:39.193Z,1013.03
2023-04-20T05:32:39.127Z,1013.00
2023-04-20T05:33:39.095Z,1012.99
2023-04-20T05:34:39.076Z,1013.02
2023-04-20T05:35:39.098Z,1013.01
2023-04-20T05:36:39.088Z,1013.02
2023-04-20T05:37:39.093Z,1013.03
2023-04-20T05:38:39.093Z,1013.05
2023-04-20T05:39:39.058Z,1013.03
2023-04-20T05:40:39.077Z,1013.02
2023-04-20T05:41:39.060Z,1013.03
2023-04-20T05:42:39.059Z,1013.05
2023-04-20T05:43:39.064Z,1013.02
2023-04-20T05:44:39.056Z,1012.97
2023-04-20T05:45:39.084Z,1012.97
2023-04-20T05:46:39.175Z,1012.96
2023-04-20T05:47:39.108Z,1012.96
2023-04-20T05:48:39.055Z,1012.98
2023-04-20T05:49:39.074Z,1012.97
2023-04-20T05:50:39.035Z,1012.98
2023-04-20T05:51:39.044Z,1012.99
2023-04-20T05:52:39.030Z,1013.01
2023-04-20T05:53:39.030Z,1013.01
2023-04-20T05:54:39.005Z,1012.99
2023-04-20T05:55:39.024Z,1013.00
2023-04-20T05:56:39.018Z,1012.98
2023-04-20T05:57:39.018Z,1012.99
2023-04-20T05:58:39.033Z,1013.01
2023-04-20T05:59:39.009Z,1013.02
2023-04-20T06:00:39.003Z,1013.00
2023-04-20T06:01:39.007Z,1013.04
2023-04-20T06:02:39.126Z,1013.06
2023-04-20T06:03:39.223Z,1013.02
2023-04-20T06:04:39.324Z,1013.06
2023-04-20T06:05:39.084Z,1013.05
2023-04-20T06:06:39.016Z,1013.05
2023-04-20T06:07:38.979Z,1013.05
2023-04-20T06:08:38.986Z,1013.05
2023-04-20T06:09:38.987Z,1013.01
2023-04-20T06:10:38.977Z,1013.05
2023-04-20T06:11:38.968Z,1013.00
2023-04-20T06:12:38.965Z,1012.98
2023-04-20T06:13:39.032Z,1013.02
2023-04-20T06:14:38.984Z,1013.00
2023-04-20T06:15:39.058Z,1012.98
2023-04-20T06:16:38.964Z,1013.01
2023-04-20T06:17:38.998Z,1012.95
2023-04-20T06:18:38.986Z,1012.98
2023-04-20T06:19:38.981Z,1012.97
2023-04-20T06:20:38.940Z,1012.92
2023-04-20T06:21:38.944Z,1013.01
2023-04-20T06:22:38.919Z,1013.04
2023-04-20T06:23:38.974Z,1012.98
2023-04-20T06:24:38.916Z,1012.96
2023-04-20T06:25:38.914Z,1013.02
2023-04-20T06:26:38.925Z,1012.99
2023-04-20T06:27:38.959Z,1013.02
2023-04-20T06:28:38.935Z,1012.98
2023-04-20T06:29:38.901Z,1012.99
2023-04-20T06:30:38.900Z,1012.98
2023-04-20T06:31:38.938Z,1013.00
2023-04-20T06:32:38.978Z,1012.97
2023-04-20T06:33:38.886Z,1012.94
2023-04-20T06:34:38.932Z,1012.95
2023-04-20T06:35:38.886Z,1012.98
2023-04-20T06:36:38.868Z,1012.94
2023-04-20T06:37:38.913Z,1012.85
2023-04-20T06:38:38.885Z,1012.92
2023-04-20T06:39:38.875Z,1012.92
2023-04-20T06:40:38.873Z,1012.91
2023-04-20T06:41:38.848Z,1012.89
2023-04-20T06:42:38.853Z,1012.90
2023-04-20T06:43:38.858Z,1012.91
2023-04-20T06:44:38.840Z,1012.92
2023-04-20T06:45:38.840Z,1012.90
2023-04-20T06:46:38.870Z,1012.95
2023-04-20T06:47:38.893Z,1012.87
2023-04-20T06:48:38.829Z,1012.88
2023-04-20T06:49:38.838Z,1012.91
2023-04-20T06:50:38.868Z,1012.89
2023-04-20T06:51:38.809Z,1012.87
2023-04-20T06:52:38.828Z,1012.86
2023-04-20T06:53:38.814Z,1012.91
2023-04-20T06:54:38.856Z,1012.89
2023-04-20T06:55:38.805Z,1012.88
2023-04-20T06:56:38.786Z,1012.88
2023-04-20T06:57:38.903Z,1012.87
2023-04-20T06:58:38.816Z,1012.87
2023-04-20T06:59:38.817Z,1012.88
2023-04-20T07:00:38.767Z,1012.90
2023-04-20T07:01:38.885Z,1012.86
2023-04-20T07:02:38.866Z,1012.84
2023-04-20T07:03:38.963Z,1012.83
2023-04-20T07:04:38.810Z,1012.85
2023-04-20T07:05:38.775Z,1012.82
2023-04-20T07:06:38.969Z,1012.83
2023-04-20T07:07:38.763Z,1012.85
2023-04-20T07:08:38.760Z,1012.87
2023-04-20T07:09:38.753Z,1012.85
2023-04-20T07:10:38.749Z,1012.82
2023-04-20T07:11:38.756Z,1012.82
2023-04-20T07:12:39.922Z,1012.81
2023-04-20T07:13:38.745Z,1012.82
2023-04-20T07:14:38.736Z,1012.79
2023-04-20T07:15:38.755Z,1012.80
2023-04-20T07:16:38.823Z,1012.78
2023-04-20T07:17:38.916Z,1012.82
2023-04-20T07:18:38.891Z,1012.82
2023-04-20T07:19:38.708Z,1012.81
2023-04-20T07:20:38.727Z,1012.79
2023-04-20T07:21:38.713Z,1012.83
2023-04-20T07:34:41.573Z,1012.79
2023-04-20T07:35:41.550Z,1012.79
2023-04-20T07:36:41.579Z,1012.77
2023-04-20T07:37:41.426Z,1012.77
2023-04-20T07:44:23.948Z,1012.72
2023-04-20T07:45:23.863Z,1012.73
2023-04-20T07:46:23.980Z,1012.76
2023-04-20T07:47:23.925Z,1012.78
2023-04-20T07:48:24.000Z,1012.76
2023-04-20T07:49:23.874Z,1012.77
2023-04-20T07:50:23.887Z,1012.77
2023-04-20T07:51:23.857Z,1012.76
2023-04-20T07:52:23.845Z,1012.78
2023-04-20T07:53:23.834Z,1012.76
2023-04-20T07:54:23.854Z,1012.73
2023-04-20T07:55:23.851Z,1012.76
2023-04-20T07:56:23.828Z,1012.77
2023-04-20T07:57:23.834Z,1012.76
2023-04-20T07:58:23.831Z,1012.76
2023-04-20T07:59:23.846Z,1012.79
2023-04-20T08:00:23.821Z,1012.75
2023-04-20T08:01:23.830Z,1012.75
2023-04-20T08:02:23.971Z,1012.72
2023-04-20T08:03:24.067Z,1012.70
2023-04-20T08:04:24.063Z,1012.74
2023-04-20T08:05:23.900Z,1012.69
2023-04-20T08:06:24.032Z,1012.70
2023-04-20T08:07:24.098Z,1012.72
2023-04-20T08:08:23.792Z,1012.71
2023-04-20T08:09:23.775Z,1012.69
2023-04-20T08:10:23.791Z,1012.68
2023-04-20T08:11:23.775Z,1012.68
2023-04-20T08:12:23.774Z,1012.68
2023-04-20T08:13:23.772Z,1012.67
2023-04-20T08:14:23.775Z,1012.63
2023-04-20T08:15:23.774Z,1012.60
2023-04-20T08:16:24.109Z,1012.64
2023-04-20T08:17:23.814Z,1012.63
2023-04-20T08:18:23.759Z,1012.60
2023-04-20T08:19:23.736Z,1012.64
2023-04-20T08:20:23.975Z,1012.61
2023-04-20T08:21:25.466Z,1012.60
2023-04-20T08:22:23.769Z,1012.61
2023-04-20T08:23:23.732Z,1012.57
2023-04-20T08:24:23.713Z,1012.64
2023-04-20T08:25:26.096Z,1012.71
2023-04-20T08:26:23.713Z,1012.68
2023-04-20T08:27:23.721Z,1012.65
2023-04-20T08:28:33.547Z,1012.64
2023-04-20T08:29:23.718Z,1012.60
2023-04-20T08:30:23.701Z,1012.59
2023-04-20T08:31:23.778Z,1012.55
2023-04-20T08:32:23.696Z,1012.57
2023-04-20T08:33:23.672Z,1012.58
2023-04-20T08:34:23.687Z,1012.52
2023-04-20T08:35:23.673Z,1012.53
2023-04-20T08:36:23.673Z,1012.51
2023-04-20T08:37:23.668Z,1012.50
2023-04-20T08:38:32.927Z,1012.53
2023-04-20T08:39:23.655Z,1012.55
2023-04-20T08:40:23.710Z,1012.55
2023-04-20T08:41:23.694Z,1012.50
2023-04-20T08:42:23.625Z,1012.51
2023-04-20T08:43:23.672Z,1012.46
2023-04-20T08:44:23.646Z,1012.50
2023-04-20T08:45:23.644Z,1012.45
2023-04-20T08:46:23.654Z,1012.51
2023-04-20T08:47:23.650Z,1012.47
2023-04-20T08:48:23.606Z,1012.44
2023-04-20T08:49:23.605Z,1012.46
2023-04-20T08:50:23.625Z,1012.47
2023-04-20T08:51:23.600Z,1012.42
2023-04-20T08:52:23.600Z,1012.44
2023-04-20T08:53:23.601Z,1012.43
2023-04-20T08:54:24.834Z,1012.40
2023-04-20T08:55:23.567Z,1012.45
2023-04-20T08:56:23.572Z,1012.47
2023-04-20T08:57:23.586Z,1012.46
2023-04-20T08:58:23.558Z,1012.43
2023-04-20T08:59:23.553Z,1012.46
2023-04-20T09:00:23.550Z,1012.44
2023-04-20T09:01:34.337Z,1012.46
2023-04-20T09:02:23.705Z,1012.44
2023-04-20T09:03:23.684Z,1012.43
2023-04-20T09:04:23.967Z,1012.48
2023-04-20T09:05:23.638Z,1012.44
2023-04-20T09:06:23.536Z,1012.45
2023-04-20T09:07:23.527Z,1012.46
2023-04-20T09:08:23.517Z,1012.45
2023-04-20T09:09:23.514Z,1012.42
2023-04-20T09:10:23.598Z,1012.41
2023-04-20T09:11:23.497Z,1012.43
2023-04-20T09:12:23.496Z,1012.39
2023-04-20T09:13:23.508Z,1012.37
2023-04-20T09:14:23.496Z,1012.45
2023-04-20T09:15:23.495Z,1012.34
2023-04-20T09:16:23.532Z,1012.32
2023-04-20T09:17:23.518Z,1012.35
2023-04-20T09:18:23.470Z,1012.33
2023-04-20T09:19:23.484Z,1012.31
2023-04-20T09:20:23.460Z,1012.30
2023-04-20T09:21:23.465Z,1012.25
2023-04-20T09:22:23.462Z,1012.28
2023-04-20T09:23:23.448Z,1012.29
2023-04-20T09:24:23.453Z,1012.32
2023-04-20T09:25:23.447Z,1012.30
2023-04-20T09:26:23.518Z,1012.30
2023-04-20T09:27:23.518Z,1012.34
2023-04-20T09:28:23.426Z,1012.37
2023-04-20T09:29:23.465Z,1012.36
2023-04-20T09:30:23.432Z,1012.39
2023-04-20T09:31:23.433Z,1012.39
2023-04-20T09:32:23.544Z,1012.41
2023-04-20T09:33:23.422Z,1012.39
2023-04-20T09:34:23.412Z,1012.49
2023-04-20T09:35:23.408Z,1012.43
2023-04-20T09:36:23.420Z,1012.47
2023-04-20T09:37:23.391Z,1012.46
2023-04-20T09:38:23.383Z,1012.47
2023-04-20T09:39:23.392Z,1012.45
2023-04-20T09:40:23.405Z,1012.41
2023-04-20T09:41:23.378Z,1012.32
2023-04-20T09:42:23.401Z,1012.37
2023-04-20T09:43:23.373Z,1012.36
2023-04-20T09:44:23.364Z,1012.34
2023-04-20T09:45:23.365Z,1012.33
2023-04-20T09:46:23.467Z,1012.34
2023-04-20T09:47:23.385Z,1012.34
2023-04-20T09:48:23.365Z,1012.39
2023-04-20T09:49:23.350Z,1012.40
2023-04-20T09:50:31.788Z,1012.41
2023-04-20T09:51:23.344Z,1012.37
2023-04-20T09:52:23.343Z,1012.40
2023-04-20T09:53:23.330Z,1012.39
2023-04-20T09:54:23.329Z,1012.38
2023-04-20T09:55:23.338Z,1012.37
2023-04-20T09:56:23.421Z,1012.43
2023-04-20T09:57:23.332Z,1012.41
2023-04-20T09:58:23.351Z,1012.43
2023-04-20T09:59:23.291Z,1012.42
2023-04-20T10:00:23.309Z,1012.42
2023-04-20T10:01:23.376Z,1012.39
2023-04-20T10:02:23.408Z,1012.45
2023-04-20T10:03:23.393Z,1012.42
2023-04-20T10:04:23.818Z,1012.42
2023-04-20T10:05:23.285Z,1012.38
2023-04-20T10:06:23.270Z,1012.39
2023-04-20T10:07:23.273Z,1012.31
2023-04-20T10:08:23.276Z,1012.29
2023-04-20T10:09:23.265Z,1012.27
2023-04-20T10:10:23.267Z,1012.33
2023-04-20T10:11:23.273Z,1012.33
2023-04-20T10:12:23.267Z,1012.29
2023-04-20T10:13:23.256Z,1012.33
2023-04-20T10:14:23.288Z,1012.29
2023-04-20T10:15:23.228Z,1012.31
2023-04-20T10:16:23.267Z,1012.30
2023-04-20T10:17:23.355Z,1012.25
2023-04-20T10:19:23.224Z,1012.19
2023-04-20T10:20:23.229Z,1012.23
2023-04-20T10:21:23.244Z,1012.19
2023-04-20T10:22:23.222Z,1012.16
2023-04-20T10:23:23.208Z,1012.16
2023-04-20T10:24:23.414Z,1012.18
2023-04-20T10:25:23.200Z,1012.18
2023-04-20T10:26:23.185Z,1012.17
2023-04-20T10:27:23.188Z,1012.18
2023-04-20T10:28:23.199Z,1012.19
2023-04-20T10:29:23.177Z,1012.15
2023-04-20T10:30:23.241Z,1012.18
2023-04-20T10:31:23.196Z,1012.14
2023-04-20T10:32:23.206Z,1012.14
2023-04-20T10:33:23.226Z,1012.15
2023-04-20T10:34:23.166Z,1012.08
2023-04-20T10:35:23.151Z,1012.10
2023-04-20T10:36:23.165Z,1012.07
2023-04-20T10:37:23.154Z,1012.10
2023-04-20T10:38:23.145Z,1012.06
2023-04-20T10:39:23.290Z,1012.07
2023-04-20T10:40:23.164Z,1012.08
2023-04-20T10:41:23.140Z,1012.06
2023-04-20T10:42:23.138Z,1012.01
2023-04-20T10:43:23.142Z,1011.99
2023-04-20T10:44:23.139Z,1012.00
2023-04-20T10:45:23.137Z,1012.03
2023-04-20T10:46:23.323Z,1012.00
2023-04-20T10:47:23.174Z,1011.97
2023-04-20T10:48:23.119Z,1011.98
2023-04-20T10:49:23.116Z,1011.96
2023-04-20T10:50:23.112Z,1011.97
2023-04-20T10:51:23.129Z,1011.98
2023-04-20T10:52:23.084Z,1012.02
2023-04-20T10:53:23.161Z,1012.05
2023-04-20T10:54:23.087Z,1012.01
2023-04-20T10:55:23.068Z,1012.05
2023-04-20T10:56:23.102Z,1012.03
2023-04-20T10:57:23.086Z,1011.99
2023-04-20T10:58:23.085Z,1012.00
2023-04-20T10:59:23.092Z,1011.95
2023-04-20T11:00:23.092Z,1012.00
2023-04-20T11:01:23.154Z,1012.00
2023-04-20T11:02:23.371Z,1011.96
2023-04-20T11:03:23.159Z,1011.98
2023-04-20T11:04:23.072Z,1011.99
2023-04-20T11:05:23.117Z,1011.96
2023-04-20T11:06:23.035Z,1012.01
2023-04-20T11:07:23.042Z,1011.94
2023-04-20T11:08:23.043Z,1011.96
2023-04-20T11:09:23.007Z,1011.93
2023-04-20T11:10:23.061Z,1011.91
2023-04-20T11:11:23.046Z,1011.91
2023-04-20T11:12:23.051Z,1011.96
2023-04-20T11:13:23.046Z,1011.89
2023-04-20T11:14:23.008Z,1011.88
2023-04-20T11:15:23.007Z,1011.91
2023-04-20T11:16:28.078Z,1011.94
2023-04-20T11:17:23.092Z,1011.91
2023-04-20T11:18:23.138Z,1011.96
2023-04-20T11:19:22.970Z,1011.86
2023-04-20T11:20:22.967Z,1011.84
2023-04-20T11:21:22.970Z,1011.87
2023-04-20T11:22:23.020Z,1011.81
2023-04-20T11:23:22.980Z,1011.85
2023-04-20T11:24:22.971Z,1011.87
2023-04-20T11:25:22.993Z,1011.87
2023-04-20T11:26:22.982Z,1011.81
2023-04-20T11:27:22.943Z,1011.88
2023-04-20T11:28:22.951Z,1011.80
2023-04-20T11:29:22.949Z,1011.80
2023-04-20T11:30:22.951Z,1011.78
2023-04-20T11:31:23.008Z,1011.79
2023-04-20T11:32:23.225Z,1011.74
2023-04-20T11:33:23.080Z,1011.81
2023-04-20T11:34:22.933Z,1011.77
2023-04-20T11:35:22.935Z,1011.78
2023-04-20T11:36:22.932Z,1011.78
2023-04-20T11:37:22.904Z,1011.75
2023-04-20T11:38:22.901Z,1011.73
2023-04-20T11:39:22.897Z,1011.78
2023-04-20T11:40:23.003Z,1011.77
2023-04-20T11:41:22.885Z,1011.81
2023-04-20T11:42:22.932Z,1011.77
2023-04-20T11:43:22.897Z,1011.73
2023-04-20T11:44:22.886Z,1011.80
2023-04-20T11:45:22.902Z,1011.77
2023-04-20T11:46:22.925Z,1011.80
2023-04-20T11:47:22.976Z,1011.77
2023-04-20T11:48:22.869Z,1011.82
2023-04-20T11:49:22.907Z,1011.84
2023-04-20T11:50:22.891Z,1011.86
2023-04-20T11:51:22.875Z,1011.81
2023-04-20T11:52:22.874Z,1011.88
2023-04-20T11:53:22.887Z,1011.80
2023-04-20T11:54:22.879Z,1011.77
2023-04-20T11:55:22.870Z,1011.80
2023-04-20T11:56:23.120Z,1011.75
2023-04-20T11:57:22.861Z,1011.77
2023-04-20T11:58:22.836Z,1011.74
2023-04-20T11:59:22.846Z,1011.69
2023-04-20T12:00:22.861Z,1011.71
2023-04-20T12:01:22.874Z,1011.71
2023-04-20T12:02:22.979Z,1011.73
2023-04-20T12:03:23.055Z,1011.67
2023-04-20T12:04:23.352Z,1011.67
2023-04-20T12:05:22.899Z,1011.67
2023-04-20T12:06:22.860Z,1011.68
2023-04-20T12:07:22.798Z,1011.66
2023-04-20T12:08:22.795Z,1011.70
2023-04-20T12:09:22.815Z,1011.72
2023-04-20T12:10:22.797Z,1011.70
2023-04-20T12:11:22.837Z,1011.66
2023-04-20T12:12:22.782Z,1011.67
2023-04-20T12:13:22.784Z,1011.74
2023-04-20T12:14:22.761Z,1011.73
2023-04-20T12:15:22.801Z,1011.69
2023-04-20T12:16:22.857Z,1011.72
2023-04-20T12:17:22.900Z,1011.65
2023-04-20T12:18:22.741Z,1011.69
2023-04-20T12:19:22.745Z,1011.69
2023-04-20T12:20:22.733Z,1011.66
2023-04-20T12:21:22.752Z,1011.67
2023-04-20T12:22:22.857Z,1011.67
2023-04-20T12:23:22.744Z,1011.68
2023-04-20T12:24:22.727Z,1011.68
2023-04-20T12:25:22.747Z,1011.70